Katsuharu Maru — JD2196 — position and weather

sailwx.info

Track history (hours):
 
Tides and Currents Weather Stations Pressure Air Temp Water Temp Dewpoint Dewpoint Depression Visibility Wind Speed Wind Dir Waves Ship Positions

Katsuharu Maru

Last reported at 2018-Jul-19 09:08 UTC. Time now 2018-Jul-20 06:29 UTC.
Position N 34°25' E 133°55'.

Length 80 m; draft 5.3 m.

Type: Cargo ship. MMSI: 431602315.

Date/timePositionNaut miles runAvg speedWind from/ knotsBaromVisibWave heightAir tempDewpointWater temp
2018-Jul-19 09:08N 34°25' E 133°55'411.6
2018-Jul-19 08:48N 34°25' E 133°60'1111.1
2018-Jul-19 07:46N 34°24' E 134°14'1412.7
2018-Jul-19 06:38N 34°28' E 134°30'213.4
2018-Jul-19 06:30N 34°28' E 134°33'713.5
2018-Jul-19 06:00N 34°31' E 134°40'714.0
2018-Jul-19 05:29N 34°34' E 134°48'714.5
2018-Jul-19 05:00N 34°37' E 134°56'713.8
2018-Jul-19 04:30N 34°36' E 135°04'713.7
2018-Jul-19 04:00N 34°37' E 135°12'612.9
2018-Jul-19 03:30N 34°38' E 135°20'5 9.0
2018-Jul-19 03:00N 34°39' E 135°25'0 0.1
2018-Jul-19 02:31N 34°39' E 135°25'0 0.0
2018-Jul-19 02:01N 34°39' E 135°25'0 0.0
2018-Jul-19 01:30N 34°39' E 135°25'0 0.0
2018-Jul-19 01:00N 34°39' E 135°25'0 0.0
2018-Jul-19 00:30N 34°39' E 135°25'0 0.0
2018-Jul-19 00:00N 34°39' E 135°25'0 0.0
2018-Jul-18 23:30N 34°39' E 135°25'0 0.0
2018-Jul-18 23:00N 34°39' E 135°25'0 0.0
2018-Jul-18 22:30N 34°39' E 135°25'0 0.1
2018-Jul-18 22:00N 34°39' E 135°25'3 6.9
2018-Jul-18 21:30N 34°37' E 135°22'4 8.5
2018-Jul-18 21:00N 34°36' E 135°17'4 8.0
2018-Jul-18 20:30N 34°35' E 135°13'4 7.9
2018-Jul-18 20:00N 34°35' E 135°08'5 9.4
2018-Jul-18 19:30N 34°36' E 135°02'911.6
2018-Jul-18 18:42N 34°34' E 134°51'411.2
2018-Jul-18 18:20N 34°32' E 134°47'411.8
2018-Jul-18 18:00N 34°31' E 134°43'612.0
2018-Jul-18 17:29N 34°28' E 134°36'612.7
2018-Jul-18 17:00N 34°26' E 134°29'  
2018-Jul-15 13:19N 34°25' E 133°57'1315.6
2018-Jul-15 12:28N 34°24' E 134°13'715.2
2018-Jul-15 12:00N 34°26' E 134°22'713.8
2018-Jul-15 11:30N 34°30' E 134°28'813.3
2018-Jul-15 10:55N 34°34' E 134°36'613.5
2018-Jul-15 10:28N 34°37' E 134°43'6 0.9
2018-Jul-15 04:03N 34°40' E 134°48'712.3
2018-Jul-15 03:27N 34°36' E 134°41'812.3
2018-Jul-15 02:49N 34°32' E 134°33'412.2
2018-Jul-15 02:29N 34°30' E 134°29'611.9
2018-Jul-15 02:00N 34°26' E 134°23'  
Track history (hours):
 
Tides and Currents Weather Stations Pressure Air Temp Water Temp Dewpoint Dewpoint Depression Visibility Wind Speed Wind Dir Waves Ship Positions

Katsuharu Maru

Last reported at 2018-Jul-19 09:08 UTC. Time now 2018-Jul-20 06:29 UTC.
Position N 34°25' E 133°55'.

Length 80 m; draft 5.3 m.

Type: Cargo ship. MMSI: 431602315.

Date/timePositionNaut miles runAvg speedWind from/ knotsBaromVisibWave heightAir tempDewpointWater temp
2018-Jul-19 09:08N 34°25' E 133°55'411.6
2018-Jul-19 08:48N 34°25' E 133°60'1111.1
2018-Jul-19 07:46N 34°24' E 134°14'1412.7
2018-Jul-19 06:38N 34°28' E 134°30'213.4
2018-Jul-19 06:30N 34°28' E 134°33'713.5
2018-Jul-19 06:00N 34°31' E 134°40'714.0
2018-Jul-19 05:29N 34°34' E 134°48'714.5
2018-Jul-19 05:00N 34°37' E 134°56'713.8
2018-Jul-19 04:30N 34°36' E 135°04'713.7
2018-Jul-19 04:00N 34°37' E 135°12'612.9
2018-Jul-19 03:30N 34°38' E 135°20'5 9.0
2018-Jul-19 03:00N 34°39' E 135°25'0 0.1
2018-Jul-19 02:31N 34°39' E 135°25'0 0.0
2018-Jul-19 02:01N 34°39' E 135°25'0 0.0
2018-Jul-19 01:30N 34°39' E 135°25'0 0.0
2018-Jul-19 01:00N 34°39' E 135°25'0 0.0
2018-Jul-19 00:30N 34°39' E 135°25'0 0.0
2018-Jul-19 00:00N 34°39' E 135°25'0 0.0
2018-Jul-18 23:30N 34°39' E 135°25'0 0.0
2018-Jul-18 23:00N 34°39' E 135°25'0 0.0
2018-Jul-18 22:30N 34°39' E 135°25'0 0.1
2018-Jul-18 22:00N 34°39' E 135°25'3 6.9
2018-Jul-18 21:30N 34°37' E 135°22'4 8.5
2018-Jul-18 21:00N 34°36' E 135°17'4 8.0
2018-Jul-18 20:30N 34°35' E 135°13'4 7.9
2018-Jul-18 20:00N 34°35' E 135°08'5 9.4
2018-Jul-18 19:30N 34°36' E 135°02'911.6
2018-Jul-18 18:42N 34°34' E 134°51'411.2
2018-Jul-18 18:20N 34°32' E 134°47'411.8
2018-Jul-18 18:00N 34°31' E 134°43'612.0
2018-Jul-18 17:29N 34°28' E 134°36'612.7
2018-Jul-18 17:00N 34°26' E 134°29'  
2018-Jul-15 13:19N 34°25' E 133°57'1315.6
2018-Jul-15 12:28N 34°24' E 134°13'715.2
2018-Jul-15 12:00N 34°26' E 134°22'713.8
2018-Jul-15 11:30N 34°30' E 134°28'813.3
2018-Jul-15 10:55N 34°34' E 134°36'613.5
2018-Jul-15 10:28N 34°37' E 134°43'6 0.9
2018-Jul-15 04:03N 34°40' E 134°48'712.3
2018-Jul-15 03:27N 34°36' E 134°41'812.3
2018-Jul-15 02:49N 34°32' E 134°33'412.2
2018-Jul-15 02:29N 34°30' E 134°29'611.9
2018-Jul-15 02:00N 34°26' E 134°23'  

Dump ship's entire track history